Latest Weather Observations for Mount Crawford

IDS60801

Issued at 7:21 am CDT Tuesday 7 December 2021 (issued every 10 minutes, with the page automatically refreshed every 10 minutes)

About weather observations | Map of weather stations | Latest weather observations for SA | Other Formats
Station Details ID: 023878 Name: MOUNT CRAWFORD AWS Lat: -34.73 Lon: 138.93 Height: 525.0 m
Data from the previous 72 hours. | See also: Recent months at Mount Crawford
Date/Time
CDT
Temp
°C
App
Temp
°C
Dew
Point
°C
Rel
Hum
%
Delta-T
°C
Wind Press
QNH
hPa
Press
MSL
hPa
Rain since
9am
mm
Dir  Spd
km/h
Gust
km/h
Spd
kts
Gust
kts
07/07:00am 9.3 4.5 8.8 97 0.3 SSW 24 33 13 18 1014.5 1012.7 0.2
07/06:30am 9.9 7.3 9.4 97 0.3 SSW 13 19 7 10 1014.4 1012.6 0.2
07/06:00am 9.5 7.1 8.7 95 0.4 SSW 11 15 6 8 1014.3 1012.5 0.0
07/05:30am 9.2 6.4 8.4 95 0.4 SSW 13 17 7 9 1013.9 1012.1 0.0
07/05:00am 9.2 6.0 8.6 96 0.3 SSW 15 19 8 10 1013.6 1011.7 0.0
07/04:30am 9.3 5.7 8.4 94 0.4 SSW 17 22 9 12 1013.4 1011.5 0.0
07/04:00am 9.2 5.6 8.3 94 0.4 SSW 17 22 9 12 1013.3 1011.4 0.0
07/03:30am 9.0 6.1 8.1 94 0.4 SW 13 17 7 9 1013.3 1011.4 0.0
07/03:00am 9.1 5.5 8.2 94 0.4 SSW 17 22 9 12 1013.2 1011.3 0.0
07/02:30am 9.3 5.3 8.2 93 0.5 SSW 19 26 10 14 1013.2 1011.3 0.0
07/02:00am 9.2 5.2 8.1 93 0.5 SSW 19 24 10 13 1013.5 1011.6 0.0
07/01:30am 9.4 5.8 8.2 92 0.6 SSW 17 22 9 12 1013.6 1011.7 0.0
07/01:00am 9.6 5.5 8.0 90 0.8 SSW 19 24 10 13 1013.8 1012.0 0.0
07/12:30am 9.7 5.5 8.1 90 0.8 SSW 20 26 11 14 1014.0 1012.2 0.0
07/12:00am 10.0 5.8 8.1 88 0.9 SSW 20 24 11 13 1014.1 1012.3 0.0
 
Date/Time
CDT
Temp
°C
App
Temp
°C
Dew
Point
°C
Rel
Hum
%
Delta-T
°C
Wind Press
QNH
hPa
Press
MSL
hPa
Rain since
9am
mm
Dir  Spd
km/h
Gust
km/h
Spd
kts
Gust
kts
06/11:30pm 10.4 5.9 8.5 88 1.0 S 22 30 12 16 1013.9 1012.1 0.0
06/11:00pm 10.8 7.1 9.4 91 0.7 S 19 26 10 14 1013.9 1012.1 0.0
06/10:30pm 11.2 7.8 9.3 88 1.0 SSE 17 22 9 12 1013.7 1011.8 0.0
06/10:00pm 11.8 8.4 9.2 84 1.3 SSE 17 20 9 11 1013.5 1011.6 0.0
06/09:30pm 12.7 9.7 9.3 80 1.8 SE 15 19 8 10 1013.2 1011.3 0.0
06/09:00pm 14.3 12.3 10.1 76 2.2 SSW 11 13 6 7 1013.2 1011.3 0.0
06/08:30pm 15.5 12.5 9.2 66 3.3 WSW 15 19 8 10 1012.7 1010.9 0.0
06/08:00pm 16.8 13.8 7.7 55 4.7 WSW 13 20 7 11 1012.6 1010.8 0.0
06/07:30pm 17.9 13.5 6.7 48 5.7 WSW 19 28 10 15 1012.4 1010.6 0.0
06/07:00pm 18.8 14.0 7.3 47 6.0 WSW 22 32 12 17 1012.1 1010.3 0.0
06/06:30pm 19.8 14.8 7.9 46 6.3 WSW 24 32 13 17 1011.8 1009.9 0.0
06/06:00pm 20.3 15.1 7.3 43 6.8 WSW 24 37 13 20 1011.6 1009.7 0.0
06/05:30pm 21.1 16.0 6.2 38 7.7 SW 22 35 12 19 1011.4 1009.5 0.0
06/05:00pm 21.9 15.6 3.6 30 9.0 WSW 26 39 14 21 1011.4 1009.5 0.0
06/04:30pm 22.6 16.2 5.1 32 9.0 WSW 28 41 15 22 1011.3 1009.4 0.0
06/04:00pm 22.8 17.5 7.0 36 8.4 W 24 39 13 21 1011.4 1009.5 0.0
06/03:30pm 23.8 18.9 8.6 38 8.3 W 24 33 13 18 1011.3 1009.4 0.0
06/03:00pm 23.6 19.3 7.7 36 8.6 WSW 20 33 11 18 1011.6 1009.7 0.0
06/02:30pm 23.7 19.6 8.6 38 8.3 WSW 20 33 11 18 1011.7 1009.8 0.0
06/02:00pm 24.5 20.1 8.9 37 8.6 W 22 37 12 20 1011.8 1009.9 0.0
06/01:30pm 24.8 20.4 9.1 37 8.7 WSW 22 33 12 18 1011.9 1010.0 0.0
06/01:00pm 24.2 19.1 6.0 31 9.5 WNW 22 33 12 18 1012.1 1010.3 0.0
06/12:30pm 24.0 19.2 7.2 34 9.0 WNW 22 39 12 21 1012.3 1010.5 0.0
06/12:00pm 23.8 19.6 5.7 31 9.4 NW 17 28 9 15 1012.6 1010.8 0.0
06/11:30am 23.2 19.8 6.1 33 8.9 NW 13 22 7 12 1012.8 1011.0 0.0
06/11:00am 23.4 19.6 7.5 36 8.5 NNW 17 26 9 14 1012.9 1011.1 0.0
06/10:30am 23.2 19.4 5.6 32 9.1 N 15 24 8 13 1013.4 1011.5 0.0
06/10:00am 21.9 19.0 6.6 37 8.0 NNW 11 17 6 9 1013.4 1011.5 0.0
06/09:30am 22.6 19.8 6.8 36 8.3 NE 11 17 6 9 1013.6 1011.7 0.0
06/09:00am 20.9 18.1 6.8 40 7.4 ENE 11 17 6 9 1013.5 1011.6 0.0
06/08:30am 19.3 15.7 5.0 39 7.1 ENE 13 19 7 10 1013.3 1011.4 0.0
06/08:00am 18.1 14.9 5.3 43 6.4 ENE 11 19 6 10 1013.3 1011.4 0.0
06/07:30am 16.5 12.9 5.2 47 5.6 ENE 13 17 7 9 1013.2 1011.3 0.0
06/07:00am 15.2 10.8 4.6 49 5.1 E 17 20 9 11 1012.8 1011.0 0.0
06/06:30am 14.3 10.3 4.9 53 4.5 E 15 19 8 10 1013.1 1011.2 0.0
06/06:00am 13.5 8.9 5.4 58 3.9 E 19 22 10 12 1012.5 1010.7 0.0
06/05:30am 13.3 8.8 6.2 62 3.5 ESE 19 22 10 12 1012.5 1010.7 0.0
06/05:00am 13.2 8.2 6.5 64 3.3 ESE 22 24 12 13 1012.5 1010.7 0.0
06/04:30am 12.5 8.1 7.2 70 2.6 ESE 20 24 11 13 1012.6 1010.8 0.0
06/04:00am 12.6 8.2 7.3 70 2.6 ESE 20 26 11 14 1012.5 1010.7 0.0
06/03:30am 12.4 7.6 7.5 72 2.5 ESE 22 26 12 14 1012.5 1010.7 0.0
06/03:00am 12.3 7.1 7.2 71 2.5 ESE 24 26 13 14 1012.7 1010.9 0.0
06/02:30am 12.2 7.0 7.1 71 2.5 ESE 24 28 13 15 1012.8 1011.0 0.0
06/02:00am 12.1 6.5 7.0 71 2.5 ESE 26 32 14 17 1013.2 1011.3 0.0
06/01:30am 12.4 6.7 6.5 67 2.9 SE 26 32 14 17 1013.5 1011.6 0.0
06/01:00am 12.3 6.6 6.6 68 2.8 ESE 26 32 14 17 1013.9 1012.1 0.0
06/12:30am 12.5 6.8 6.5 67 2.9 SE 26 33 14 18 1014.3 1012.5 0.0
06/12:00am 12.9 6.7 6.0 63 3.4 SE 28 35 15 19 1014.7 1012.9 0.0
 
Date/Time
CDT
Temp
°C
App
Temp
°C
Dew
Point
°C
Rel
Hum
%
Delta-T
°C
Wind Press
QNH
hPa
Press
MSL
hPa
Rain since
9am
mm
Dir  Spd
km/h
Gust
km/h
Spd
kts
Gust
kts
05/11:30pm 13.0 6.7 5.9 62 3.4 SE 28 35 15 19 1014.9 1013.1 0.0
05/11:00pm 12.8 6.7 6.4 65 3.1 SE 28 35 15 19 1015.2 1013.3 0.0
05/10:30pm 12.3 6.3 7.2 71 2.5 SE 28 33 15 18 1015.3 1013.4 0.0
05/10:00pm 12.1 7.1 8.2 77 2.0 SE 24 32 13 17 1015.5 1013.7 0.0
05/09:30pm 12.6 7.3 8.3 75 2.2 SE 26 33 14 18 1015.4 1013.5 0.0
05/09:00pm 13.4 8.1 8.3 71 2.6 SE 26 33 14 18 1015.5 1013.7 0.0
05/08:30pm 14.3 9.5 8.7 69 2.9 SE 24 35 13 19 1015.6 1013.8 0.0
05/08:00pm 15.1 10.7 8.8 66 3.3 SE 22 30 12 16 1015.5 1013.7 0.0
05/07:30pm 15.8 10.5 8.5 62 3.8 SE 26 37 14 20 1015.3 1013.4 0.0
05/07:00pm 17.0 11.9 9.2 60 4.2 SE 26 37 14 20 1015.2 1013.3 0.0
05/06:30pm 18.3 13.6 9.1 55 4.9 SE 24 35 13 19 1015.2 1013.3 0.0
05/06:00pm 21.1 17.6 8.7 45 6.7 SE 17 35 9 19 1015.3 1013.4 0.0
05/05:30pm 22.6 20.4 6.0 34 8.6 E 7 15 4 8 1015.4 1013.5 0.0
05/05:00pm 21.7 18.8 6.4 37 8.0 NE 11 19 6 10 1015.7 1013.9 0.0
05/04:30pm 22.4 19.8 7.8 39 7.8 E 11 17 6 9 1016.1 1014.3 0.0
05/04:00pm 22.5 20.6 7.5 38 8.0 NNE 7 13 4 7 1016.3 1014.5 0.0
05/03:30pm 21.3 19.2 6.8 39 7.6 ENE 7 17 4 9 1016.8 1015.0 0.0
05/03:00pm 21.3 19.3 7.2 40 7.4 SSE 7 13 4 7 1017.3 1015.5 0.0
05/02:30pm 20.9 18.5 7.2 41 7.2 NW 9 17 5 9 1017.7 1015.9 0.0
05/02:00pm 21.1 18.5 7.7 42 7.1 ENE 11 24 6 13 1018.1 1016.3 0.0
05/01:30pm 19.8 17.8 6.9 43 6.7 NW 7 11 4 6 1018.4 1016.6 0.0
05/01:00pm 18.6 15.4 6.8 46 6.1 ENE 13 22 7 12 1018.5 1016.7 0.0
05/12:30pm 18.9 15.2 8.0 49 5.7 ENE 17 26 9 14 1018.6 1016.8 0.0
05/12:00pm 19.2 15.6 8.2 49 5.8 E 17 32 9 17 1018.8 1017.1 0.0
05/11:30am 17.5 13.1 7.5 52 5.2 E 20 30 11 16 1019.0 1017.3 0.0
05/11:00am 16.9 13.6 8.1 56 4.6 E 15 26 8 14 1019.7 1017.9 0.0
05/10:30am 16.0 12.0 8.2 60 4.0 ENE 19 26 10 14 1019.9 1018.1 0.0
05/10:00am 15.6 12.1 8.6 63 3.7 E 17 24 9 13 1020.3 1018.5 0.0
05/09:30am 15.1 11.2 8.6 65 3.4 E 19 26 10 14 1020.5 1018.8 0.0
05/09:00am 14.7 10.7 8.9 68 3.0 E 20 30 11 16 1020.7 1019.0 0.0
05/08:30am 12.6 6.8 8.1 74 2.3 E 28 35 15 19 1020.5 1018.8 0.0
05/08:00am 11.5 5.7 8.0 79 1.8 ESE 28 37 15 20 1020.4 1018.6 0.0
05/07:30am 10.2 4.2 6.9 80 1.6 ESE 28 37 15 20 1020.1 1018.3 0.0
05/07:00am 8.9 2.4 6.5 85 1.1 ESE 30 39 16 21 1019.8 1018.0 0.0
05/06:30am 8.4 0.8 6.0 85 1.1 ESE 35 44 19 24 1019.6 1017.8 0.0
05/06:00am 8.1 0.6 6.2 88 0.9 ESE 35 43 19 23 1019.5 1017.7 0.0
05/05:30am 8.5 1.5 6.8 89 0.8 ESE 33 44 18 24 1019.3 1017.5 0.0
05/05:00am 8.9 1.6 7.4 90 0.7 ESE 35 46 19 25 1018.9 1017.2 0.0
05/04:30am 9.3 2.2 8.1 92 0.6 ESE 35 50 19 27 1018.9 1017.2 0.0
05/04:00am 9.4 2.4 8.5 94 0.5 ESE 35 44 19 24 1018.9 1017.2 0.0
05/03:30am 9.5 3.1 8.7 95 0.4 ESE 32 43 17 23 1019.0 1017.3 0.0
05/03:00am 9.4 2.8 8.5 94 0.4 ESE 33 44 18 24 1019.4 1017.6 0.0
05/02:30am 9.4 3.8 8.8 96 0.3 ESE 28 41 15 22 1019.7 1017.9 0.0
05/02:00am 9.1 3.0 8.3 95 0.4 SE 30 46 16 25 1019.7 1017.9 0.0
05/01:51am 9.2 3.6 8.6 96 0.3 SE 28 46 15 25 1019.7 1017.9 0.0
05/01:30am 9.1 3.0 8.3 95 0.4 SE 30 39 16 21 1020.0 1018.2 0.0
05/01:00am 9.0 2.9 8.2 95 0.4 SE 30 41 16 22 1020.4 1018.6 0.0
05/12:30am 9.0 3.3 8.2 95 0.4 SE 28 37 15 20 1020.9 1019.2 0.0
05/12:00am 9.3 3.9 8.1 92 0.6 SE 26 35 14 19 1021.5 1019.7 0.0
 
Date/Time
CDT
Temp
°C
App
Temp
°C
Dew
Point
°C
Rel
Hum
%
Delta-T
°C
Wind Press
QNH
hPa
Press
MSL
hPa
Rain since
9am
mm
Dir  Spd
km/h
Gust
km/h
Spd
kts
Gust
kts
04/11:30pm 9.5 4.5 7.9 90 0.8 SE 24 33 13 18 1021.6 1019.8 0.0
04/11:00pm 9.7 4.6 7.8 88 0.9 SE 24 33 13 18 1021.7 1019.9 0.0
04/10:30pm 9.7 4.3 7.8 88 0.9 SE 26 35 14 19 1021.5 1019.7 0.0
04/10:00pm 9.8 5.1 7.6 86 1.1 SE 22 32 12 17 1021.6 1019.8 0.0
04/09:30pm 10.2 5.0 7.3 82 1.4 SE 24 39 13 21 1021.6 1019.8 0.0
04/09:00pm 10.8 4.8 6.9 77 1.9 SE 28 37 15 20 1021.2 1019.4 0.0
04/08:30pm 11.5 5.9 7.0 74 2.2 SE 26 39 14 21 1020.9 1019.2 0.0
04/08:00pm 12.5 7.6 7.0 69 2.7 SSE 22 33 12 18 1021.0 1019.3 0.0
04/07:30pm 14.0 9.7 7.1 63 3.5 SE 19 28 10 15 1021.0 1019.3 0.0
04/07:00pm 15.1 10.8 7.2 59 4.0 SSE 19 30 10 16 1020.8 1019.1 0.0
04/06:30pm 16.4 12.1 7.1 54 4.7 S 19 24 10 13 1020.8 1019.1 0.0
04/06:00pm 17.4 13.3 8.0 54 4.9 SE 19 28 10 15 1020.2 1018.4 0.0
04/05:30pm 17.9 13.6 7.0 49 5.6 SSE 19 28 10 15 1020.3 1018.5 0.0
04/05:00pm 18.9 15.1 7.7 48 5.9 SE 17 22 9 12 1020.4 1018.6 0.0
04/04:30pm 19.3 16.4 8.3 49 5.8 SE 13 24 7 13 1020.7 1019.0 0.0
04/04:00pm 18.8 14.9 7.3 47 6.0 S 17 22 9 12 1021.2 1019.4 0.0
04/03:30pm 19.5 16.5 9.1 51 5.6 SSE 15 26 8 14 1021.3 1019.5 0.0
04/03:00pm 18.5 15.0 8.7 53 5.2 SSW 17 28 9 15 1021.6 1019.8 0.0
04/02:30pm 18.5 14.7 7.6 49 5.7 S 17 26 9 14 1021.5 1019.7 0.0
04/02:00pm 17.8 13.8 6.7 48 5.7 S 17 26 9 14 1021.8 1020.0 0.0
04/01:30pm 17.7 14.4 6.3 47 5.8 S 13 26 7 14 1022.2 1020.5 0.0
04/01:00pm 17.3 12.8 6.2 48 5.6 S 19 30 10 16 1022.4 1020.7 0.0
04/12:30pm 17.2 13.2 6.7 50 5.3 S 17 26 9 14 1022.8 1021.1 0.0
04/12:00pm 17.3 12.9 7.6 53 5.0 SSE 20 32 11 17 1022.7 1021.0 0.0
04/11:30am 16.4 12.5 7.1 54 4.7 SSE 17 28 9 15 1022.7 1021.0 0.0
04/11:00am 16.2 11.9 7.2 55 4.6 SSE 19 26 10 14 1022.6 1020.9 0.0
04/10:30am 14.6 10.5 6.4 58 4.1 S 17 24 9 13 1022.8 1021.1 0.0
04/10:00am 14.1 9.9 7.6 65 3.3 SSE 19 28 10 15 1022.9 1021.2 0.0
04/09:30am 12.8 8.8 6.8 67 3.0 S 17 24 9 13 1022.9 1021.2 0.0
04/09:00am 12.1 7.7 6.6 69 2.7 S 19 26 10 14 1022.8 1021.1 0.0
04/08:30am 10.8 6.6 5.8 71 2.4 S 17 26 9 14 1022.8 1021.1 0.0
04/08:00am 10.4 6.3 6.2 75 2.0 S 17 24 9 13 1022.5 1020.8 0.0
04/07:30am 9.5 6.2 6.2 80 1.6 S 13 19 7 10 1022.2 1020.5 0.0

Other formats

Comma delimited format used in spreadsheet applications
http://www.bom.gov.au/fwo/IDS60801/IDS60801.94678.axf

JavaScript Object Notation format (JSON) in row-major order
http://www.bom.gov.au/fwo/IDS60801/IDS60801.94678.json

Data quality

Most of these data are generated automatically and are frequently updated. Quality checks on data are not normally performed. It is possible for incorrect values to appear. Refer to information at About Latest Weather Observations and please check the disclaimer before using these data.